KBIE/BIE METAR and TAF weather

Enter ICAO airport designator
Station Type Date Time Source
KBIE METAR 2018/04/19 13:15 UTC NOAA

KBIE 191315Z AUTO 00000KT 10SM CLR 01/00 A3044 RMK AO2 T00051005


Station Type Date Time Source
KBIE Decoded METAR 2018/04/19 13:15 UTC NOAA

Beatrice Municipal, NE, United States (KBIE) 40-18N 096-45W
Apr 19, 2018 - 09:15 AM EDT / 2018.04.19 1315 UTC
Wind: Calm:0
Visibility: 10 mile(s):0
Sky conditions: clear
Temperature: 32.9 F (0.5 C)
Dew Point: 31.1 F (-0.5 C)
Relative Humidity: 92%
Pressure (altimeter): 30.44 in. Hg (1030 hPa)
ob: KBIE 191315Z AUTO 00000KT 10SM CLR 01/00 A3044 RMK AO2 T00051005
cycle: 13

Station Type Date Time Source
KBIE TAF UTC NOAA

Error!


Example: see airport list